sensor_id;sensor_type;location;lat;lon;timestamp;temperature;humidity
28175;SHT30;59417;44.788;10.334;2024-03-08T00:00:10;8.42;78.47
28175;SHT30;59417;44.788;10.334;2024-03-08T00:02:41;8.52;78.27
28175;SHT30;59417;44.788;10.334;2024-03-08T00:05:08;8.60;77.60
28175;SHT30;59417;44.788;10.334;2024-03-08T00:07:43;8.62;77.61
28175;SHT30;59417;44.788;10.334;2024-03-08T00:10:10;8.63;77.74
28175;SHT30;59417;44.788;10.334;2024-03-08T00:12:43;8.66;77.49
28175;SHT30;59417;44.788;10.334;2024-03-08T00:15:13;8.67;77.71
28175;SHT30;59417;44.788;10.334;2024-03-08T00:17:43;8.67;77.36
28175;SHT30;59417;44.788;10.334;2024-03-08T00:20:09;8.80;76.09
28175;SHT30;59417;44.788;10.334;2024-03-08T00:22:35;8.83;75.42
28175;SHT30;59417;44.788;10.334;2024-03-08T00:25:02;8.76;75.86
28175;SHT30;59417;44.788;10.334;2024-03-08T00:27:28;8.76;76.78
28175;SHT30;59417;44.788;10.334;2024-03-08T00:29:59;8.77;77.33
28175;SHT30;59417;44.788;10.334;2024-03-08T00:32:26;8.76;77.25
28175;SHT30;59417;44.788;10.334;2024-03-08T00:34:55;8.74;76.99
28175;SHT30;59417;44.788;10.334;2024-03-08T00:37:21;8.66;77.16
28175;SHT30;59417;44.788;10.334;2024-03-08T00:39:48;8.64;77.62
28175;SHT30;59417;44.788;10.334;2024-03-08T00:42:15;8.67;77.81
28175;SHT30;59417;44.788;10.334;2024-03-08T00:44:41;8.62;77.77
28175;SHT30;59417;44.788;10.334;2024-03-08T00:47:06;8.70;77.41
28175;SHT30;59417;44.788;10.334;2024-03-08T00:49:32;8.73;77.13
28175;SHT30;59417;44.788;10.334;2024-03-08T00:51:57;8.70;77.71
28175;SHT30;59417;44.788;10.334;2024-03-08T00:54:23;8.67;78.20
28175;SHT30;59417;44.788;10.334;2024-03-08T00:56:48;8.70;78.25
28175;SHT30;59417;44.788;10.334;2024-03-08T00:59:14;8.69;78.30
28175;SHT30;59417;44.788;10.334;2024-03-08T01:01:40;8.67;78.80
28175;SHT30;59417;44.788;10.334;2024-03-08T01:04:06;8.59;78.39
28175;SHT30;59417;44.788;10.334;2024-03-08T01:06:33;8.62;78.99
28175;SHT30;59417;44.788;10.334;2024-03-08T01:08:59;8.60;78.83
28175;SHT30;59417;44.788;10.334;2024-03-08T01:11:25;8.59;78.77
28175;SHT30;59417;44.788;10.334;2024-03-08T01:13:50;8.54;78.53
28175;SHT30;59417;44.788;10.334;2024-03-08T01:16:16;8.53;79.10
28175;SHT30;59417;44.788;10.334;2024-03-08T01:18:43;8.46;78.84
28175;SHT30;59417;44.788;10.334;2024-03-08T01:21:08;8.54;79.20
28175;SHT30;59417;44.788;10.334;2024-03-08T01:23:34;8.60;78.96
28175;SHT30;59417;44.788;10.334;2024-03-08T01:26:00;8.57;78.78
28175;SHT30;59417;44.788;10.334;2024-03-08T01:28:27;8.60;78.71
28175;SHT30;59417;44.788;10.334;2024-03-08T01:30:53;8.54;78.73
28175;SHT30;59417;44.788;10.334;2024-03-08T01:33:25;8.54;79.02
28175;SHT30;59417;44.788;10.334;2024-03-08T01:35:51;8.52;79.00
28175;SHT30;59417;44.788;10.334;2024-03-08T01:38:18;8.56;79.23
28175;SHT30;59417;44.788;10.334;2024-03-08T01:40:44;8.59;79.30
28175;SHT30;59417;44.788;10.334;2024-03-08T01:43:25;8.72;79.19
28175;SHT30;59417;44.788;10.334;2024-03-08T01:45:55;8.76;78.99
28175;SHT30;59417;44.788;10.334;2024-03-08T01:48:23;8.63;79.38
28175;SHT30;59417;44.788;10.334;2024-03-08T01:50:49;8.60;79.80
28175;SHT30;59417;44.788;10.334;2024-03-08T01:53:17;8.60;79.81
28175;SHT30;59417;44.788;10.334;2024-03-08T01:55:45;8.64;79.86
28175;SHT30;59417;44.788;10.334;2024-03-08T01:58:12;8.64;79.68
28175;SHT30;59417;44.788;10.334;2024-03-08T02:00:42;8.62;79.87
28175;SHT30;59417;44.788;10.334;2024-03-08T02:03:09;8.62;80.02
28175;SHT30;59417;44.788;10.334;2024-03-08T02:05:40;8.60;80.00
28175;SHT30;59417;44.788;10.334;2024-03-08T02:08:07;8.59;80.08
28175;SHT30;59417;44.788;10.334;2024-03-08T02:10:36;8.63;79.63
28175;SHT30;59417;44.788;10.334;2024-03-08T02:13:02;8.54;79.87
28175;SHT30;59417;44.788;10.334;2024-03-08T02:16:00;8.53;79.91
28175;SHT30;59417;44.788;10.334;2024-03-08T02:18:27;8.46;79.79
28175;SHT30;59417;44.788;10.334;2024-03-08T02:23:19;8.36;80.15
28175;SHT30;59417;44.788;10.334;2024-03-08T02:25:46;8.32;80.27
28175;SHT30;59417;44.788;10.334;2024-03-08T02:28:12;8.15;80.70
28175;SHT30;59417;44.788;10.334;2024-03-08T02:30:38;8.12;81.17
28175;SHT30;59417;44.788;10.334;2024-03-08T02:33:07;8.17;81.07
28175;SHT30;59417;44.788;10.334;2024-03-08T02:35:35;8.17;80.94
28175;SHT30;59417;44.788;10.334;2024-03-08T02:38:03;8.17;80.57
28175;SHT30;59417;44.788;10.334;2024-03-08T02:40:29;8.10;80.86
28175;SHT30;59417;44.788;10.334;2024-03-08T02:42:55;8.05;81.01
28175;SHT30;59417;44.788;10.334;2024-03-08T02:45:20;8.05;81.06
28175;SHT30;59417;44.788;10.334;2024-03-08T02:47:46;8.05;80.99
28175;SHT30;59417;44.788;10.334;2024-03-08T02:50:11;8.00;80.98
28175;SHT30;59417;44.788;10.334;2024-03-08T02:52:42;7.98;81.29
28175;SHT30;59417;44.788;10.334;2024-03-08T02:55:08;7.88;81.54
28175;SHT30;59417;44.788;10.334;2024-03-08T02:57:36;7.93;81.96
28175;SHT30;59417;44.788;10.334;2024-03-08T03:00:02;7.94;81.70
28175;SHT30;59417;44.788;10.334;2024-03-08T03:02:29;7.95;81.74
28175;SHT30;59417;44.788;10.334;2024-03-08T03:04:55;7.95;81.75
28175;SHT30;59417;44.788;10.334;2024-03-08T03:07:21;7.94;82.27
28175;SHT30;59417;44.788;10.334;2024-03-08T03:09:47;7.98;82.56
28175;SHT30;59417;44.788;10.334;2024-03-08T03:12:12;8.05;82.69
28175;SHT30;59417;44.788;10.334;2024-03-08T03:14:39;8.14;82.51
28175;SHT30;59417;44.788;10.334;2024-03-08T03:17:05;8.22;82.54
28175;SHT30;59417;44.788;10.334;2024-03-08T03:19:31;8.31;82.63
28175;SHT30;59417;44.788;10.334;2024-03-08T03:21:56;8.32;83.28
28175;SHT30;59417;44.788;10.334;2024-03-08T03:24:22;8.42;83.71
28175;SHT30;59417;44.788;10.334;2024-03-08T03:26:48;8.41;84.09
28175;SHT30;59417;44.788;10.334;2024-03-08T03:29:15;8.46;84.44
28175;SHT30;59417;44.788;10.334;2024-03-08T03:31:42;8.49;84.89
28175;SHT30;59417;44.788;10.334;2024-03-08T03:34:08;8.46;85.14
28175;SHT30;59417;44.788;10.334;2024-03-08T03:36:34;8.52;85.45
28175;SHT30;59417;44.788;10.334;2024-03-08T03:39:01;8.62;85.34
28175;SHT30;59417;44.788;10.334;2024-03-08T03:41:38;8.63;85.42
28175;SHT30;59417;44.788;10.334;2024-03-08T03:44:04;8.64;85.31
28175;SHT30;59417;44.788;10.334;2024-03-08T03:46:32;8.56;85.36
28175;SHT30;59417;44.788;10.334;2024-03-08T03:48:58;8.60;85.16
28175;SHT30;59417;44.788;10.334;2024-03-08T03:51:24;8.64;85.10
28175;SHT30;59417;44.788;10.334;2024-03-08T03:53:49;8.63;85.08
28175;SHT30;59417;44.788;10.334;2024-03-08T03:56:15;8.60;85.06
28175;SHT30;59417;44.788;10.334;2024-03-08T03:58:41;8.64;84.84
28175;SHT30;59417;44.788;10.334;2024-03-08T04:01:07;8.63;84.58
28175;SHT30;59417;44.788;10.334;2024-03-08T04:03:33;8.67;84.52
28175;SHT30;59417;44.788;10.334;2024-03-08T04:05:59;8.62;84.61
28175;SHT30;59417;44.788;10.334;2024-03-08T04:08:24;8.57;84.60
28175;SHT30;59417;44.788;10.334;2024-03-08T04:10:50;8.56;84.42
28175;SHT30;59417;44.788;10.334;2024-03-08T04:13:16;8.59;84.42
28175;SHT30;59417;44.788;10.334;2024-03-08T04:15:42;8.66;84.37
28175;SHT30;59417;44.788;10.334;2024-03-08T04:18:09;8.57;84.53
28175;SHT30;59417;44.788;10.334;2024-03-08T04:20:35;8.54;85.00
28175;SHT30;59417;44.788;10.334;2024-03-08T04:23:02;8.52;85.45
28175;SHT30;59417;44.788;10.334;2024-03-08T04:25:27;8.50;85.49
28175;SHT30;59417;44.788;10.334;2024-03-08T04:27:53;8.60;85.49
28175;SHT30;59417;44.788;10.334;2024-03-08T04:30:18;8.53;85.62
28175;SHT30;59417;44.788;10.334;2024-03-08T04:32:46;8.60;85.71
28175;SHT30;59417;44.788;10.334;2024-03-08T04:35:12;8.60;85.97
28175;SHT30;59417;44.788;10.334;2024-03-08T04:37:38;8.57;86.09
28175;SHT30;59417;44.788;10.334;2024-03-08T04:40:05;8.56;86.23
28175;SHT30;59417;44.788;10.334;2024-03-08T04:42:31;8.56;86.24
28175;SHT30;59417;44.788;10.334;2024-03-08T04:44:58;8.52;86.36
28175;SHT30;59417;44.788;10.334;2024-03-08T04:47:24;8.53;86.58
28175;SHT30;59417;44.788;10.334;2024-03-08T04:49:50;8.57;86.51
28175;SHT30;59417;44.788;10.334;2024-03-08T04:52:16;8.50;86.55
28175;SHT30;59417;44.788;10.334;2024-03-08T04:54:41;8.53;86.68
28175;SHT30;59417;44.788;10.334;2024-03-08T04:57:07;8.53;86.84
28175;SHT30;59417;44.788;10.334;2024-03-08T04:59:32;8.60;86.60
28175;SHT30;59417;44.788;10.334;2024-03-08T05:01:58;8.64;86.63
28175;SHT30;59417;44.788;10.334;2024-03-08T05:04:24;8.57;86.55
28175;SHT30;59417;44.788;10.334;2024-03-08T05:06:49;8.52;86.68
28175;SHT30;59417;44.788;10.334;2024-03-08T05:09:15;8.46;86.71
28175;SHT30;59417;44.788;10.334;2024-03-08T05:11:42;8.43;86.84
28175;SHT30;59417;44.788;10.334;2024-03-08T05:14:08;8.36;86.78
28175;SHT30;59417;44.788;10.334;2024-03-08T05:16:34;8.39;86.89
28175;SHT30;59417;44.788;10.334;2024-03-08T05:18:59;8.36;86.70
28175;SHT30;59417;44.788;10.334;2024-03-08T05:21:25;8.31;86.58
28175;SHT30;59417;44.788;10.334;2024-03-08T05:23:50;8.29;86.84
28175;SHT30;59417;44.788;10.334;2024-03-08T05:26:16;8.39;86.91
28175;SHT30;59417;44.788;10.334;2024-03-08T05:28:42;8.36;86.33
28175;SHT30;59417;44.788;10.334;2024-03-08T05:31:08;8.33;86.12
28175;SHT30;59417;44.788;10.334;2024-03-08T05:33:33;8.39;85.94
28175;SHT30;59417;44.788;10.334;2024-03-08T05:36:02;8.31;85.95
28175;SHT30;59417;44.788;10.334;2024-03-08T05:38:28;8.29;86.03
28175;SHT30;59417;44.788;10.334;2024-03-08T05:40:54;8.26;86.10
28175;SHT30;59417;44.788;10.334;2024-03-08T05:43:20;8.24;86.11
28175;SHT30;59417;44.788;10.334;2024-03-08T05:45:46;8.24;86.26
28175;SHT30;59417;44.788;10.334;2024-03-08T05:48:13;8.20;86.48
28175;SHT30;59417;44.788;10.334;2024-03-08T05:50:38;8.18;86.54
28175;SHT30;59417;44.788;10.334;2024-03-08T05:53:04;8.20;86.61
28175;SHT30;59417;44.788;10.334;2024-03-08T05:55:33;8.22;86.81
28175;SHT30;59417;44.788;10.334;2024-03-08T05:58:01;8.22;86.63
28175;SHT30;59417;44.788;10.334;2024-03-08T06:00:27;8.26;86.45
28175;SHT30;59417;44.788;10.334;2024-03-08T06:02:53;8.25;86.34
28175;SHT30;59417;44.788;10.334;2024-03-08T06:05:18;8.20;86.38
28175;SHT30;59417;44.788;10.334;2024-03-08T06:07:44;8.22;86.70
28175;SHT30;59417;44.788;10.334;2024-03-08T06:10:11;8.26;86.67
28175;SHT30;59417;44.788;10.334;2024-03-08T06:12:38;8.22;86.38
28175;SHT30;59417;44.788;10.334;2024-03-08T06:15:07;8.31;86.07
28175;SHT30;59417;44.788;10.334;2024-03-08T06:17:35;8.31;85.78
28175;SHT30;59417;44.788;10.334;2024-03-08T06:20:01;8.28;85.31
28175;SHT30;59417;44.788;10.334;2024-03-08T06:22:26;8.31;84.63
28175;SHT30;59417;44.788;10.334;2024-03-08T06:24:52;8.22;84.84
28175;SHT30;59417;44.788;10.334;2024-03-08T06:27:19;8.17;85.03
28175;SHT30;59417;44.788;10.334;2024-03-08T06:29:45;8.18;85.25
28175;SHT30;59417;44.788;10.334;2024-03-08T06:32:10;8.21;85.00
28175;SHT30;59417;44.788;10.334;2024-03-08T06:34:36;8.20;84.79
28175;SHT30;59417;44.788;10.334;2024-03-08T06:37:02;8.26;84.32
28175;SHT30;59417;44.788;10.334;2024-03-08T06:39:27;8.28;83.99
28175;SHT30;59417;44.788;10.334;2024-03-08T06:41:57;8.35;83.55
28175;SHT30;59417;44.788;10.334;2024-03-08T06:44:23;8.38;83.23
28175;SHT30;59417;44.788;10.334;2024-03-08T06:46:48;8.42;83.12
28175;SHT30;59417;44.788;10.334;2024-03-08T06:49:14;8.43;83.16
28175;SHT30;59417;44.788;10.334;2024-03-08T06:51:41;8.41;83.07
28175;SHT30;59417;44.788;10.334;2024-03-08T06:54:07;8.36;82.93
28175;SHT30;59417;44.788;10.334;2024-03-08T06:56:35;8.41;82.68
28175;SHT30;59417;44.788;10.334;2024-03-08T06:59:00;8.38;82.54
28175;SHT30;59417;44.788;10.334;2024-03-08T07:01:29;8.43;82.32
28175;SHT30;59417;44.788;10.334;2024-03-08T07:03:57;8.41;82.26
28175;SHT30;59417;44.788;10.334;2024-03-08T07:06:26;8.45;82.32
28175;SHT30;59417;44.788;10.334;2024-03-08T07:08:54;8.48;82.10
28175;SHT30;59417;44.788;10.334;2024-03-08T07:11:20;8.50;82.02
28175;SHT30;59417;44.788;10.334;2024-03-08T07:13:46;8.50;82.25
28175;SHT30;59417;44.788;10.334;2024-03-08T07:16:11;8.60;82.41
28175;SHT30;59417;44.788;10.334;2024-03-08T07:18:37;8.63;82.36
28175;SHT30;59417;44.788;10.334;2024-03-08T07:21:09;8.64;82.35
28175;SHT30;59417;44.788;10.334;2024-03-08T07:23:36;8.66;82.40
28175;SHT30;59417;44.788;10.334;2024-03-08T07:26:20;8.67;82.38
28175;SHT30;59417;44.788;10.334;2024-03-08T07:28:46;8.59;82.71
28175;SHT30;59417;44.788;10.334;2024-03-08T07:31:12;8.56;83.02
28175;SHT30;59417;44.788;10.334;2024-03-08T07:33:46;8.57;83.21
28175;SHT30;59417;44.788;10.334;2024-03-08T07:36:12;8.54;83.51
28175;SHT30;59417;44.788;10.334;2024-03-08T07:38:40;8.56;83.54
28175;SHT30;59417;44.788;10.334;2024-03-08T07:41:06;8.59;83.27
28175;SHT30;59417;44.788;10.334;2024-03-08T07:43:32;8.50;83.52
28175;SHT30;59417;44.788;10.334;2024-03-08T07:45:59;8.50;84.06
28175;SHT30;59417;44.788;10.334;2024-03-08T07:48:27;8.64;83.73
28175;SHT30;59417;44.788;10.334;2024-03-08T07:50:53;8.60;83.72
28175;SHT30;59417;44.788;10.334;2024-03-08T07:53:19;8.66;83.84
28175;SHT30;59417;44.788;10.334;2024-03-08T07:55:44;8.62;83.64
28175;SHT30;59417;44.788;10.334;2024-03-08T07:58:13;8.64;84.03
28175;SHT30;59417;44.788;10.334;2024-03-08T08:00:39;8.66;83.57
28175;SHT30;59417;44.788;10.334;2024-03-08T08:03:08;8.69;83.87
28175;SHT30;59417;44.788;10.334;2024-03-08T08:05:34;8.76;84.14
28175;SHT30;59417;44.788;10.334;2024-03-08T08:08:04;8.81;83.69
28175;SHT30;59417;44.788;10.334;2024-03-08T08:10:34;8.83;83.34
28175;SHT30;59417;44.788;10.334;2024-03-08T08:13:00;8.86;83.91
28175;SHT30;59417;44.788;10.334;2024-03-08T08:15:26;8.86;83.57
28175;SHT30;59417;44.788;10.334;2024-03-08T08:17:53;8.87;83.34
28175;SHT30;59417;44.788;10.334;2024-03-08T08:20:19;8.90;83.38
28175;SHT30;59417;44.788;10.334;2024-03-08T08:22:45;8.89;83.67
28175;SHT30;59417;44.788;10.334;2024-03-08T08:25:13;8.92;83.82
28175;SHT30;59417;44.788;10.334;2024-03-08T08:27:41;8.93;83.92
28175;SHT30;59417;44.788;10.334;2024-03-08T08:30:10;8.94;83.58
28175;SHT30;59417;44.788;10.334;2024-03-08T08:32:37;9.00;83.74
28175;SHT30;59417;44.788;10.334;2024-03-08T08:35:03;8.99;83.76
28175;SHT30;59417;44.788;10.334;2024-03-08T08:37:30;8.99;83.26
28175;SHT30;59417;44.788;10.334;2024-03-08T08:39:57;9.03;83.76
28175;SHT30;59417;44.788;10.334;2024-03-08T08:42:23;9.04;83.68
28175;SHT30;59417;44.788;10.334;2024-03-08T08:44:49;9.17;83.82
28175;SHT30;59417;44.788;10.334;2024-03-08T08:47:16;9.27;83.33
28175;SHT30;59417;44.788;10.334;2024-03-08T08:49:44;9.28;83.37
28175;SHT30;59417;44.788;10.334;2024-03-08T08:52:12;9.34;83.52
28175;SHT30;59417;44.788;10.334;2024-03-08T08:54:38;9.37;83.30
28175;SHT30;59417;44.788;10.334;2024-03-08T08:57:04;9.44;83.07
28175;SHT30;59417;44.788;10.334;2024-03-08T08:59:36;9.42;82.95
28175;SHT30;59417;44.788;10.334;2024-03-08T09:02:06;9.45;83.17
28175;SHT30;59417;44.788;10.334;2024-03-08T09:04:32;9.47;83.02
28175;SHT30;59417;44.788;10.334;2024-03-08T09:06:58;9.52;83.51
28175;SHT30;59417;44.788;10.334;2024-03-08T09:09:24;9.45;83.36
28175;SHT30;59417;44.788;10.334;2024-03-08T09:11:51;9.49;82.96
28175;SHT30;59417;44.788;10.334;2024-03-08T09:14:16;9.54;83.09
28175;SHT30;59417;44.788;10.334;2024-03-08T09:16:43;9.61;82.99
28175;SHT30;59417;44.788;10.334;2024-03-08T09:19:08;9.63;82.74
28175;SHT30;59417;44.788;10.334;2024-03-08T09:21:36;9.66;82.37
28175;SHT30;59417;44.788;10.334;2024-03-08T09:24:02;9.66;82.73
28175;SHT30;59417;44.788;10.334;2024-03-08T09:26:28;9.81;82.88
28175;SHT30;59417;44.788;10.334;2024-03-08T09:28:54;9.89;83.01
28175;SHT30;59417;44.788;10.334;2024-03-08T09:31:22;10.00;82.12
28175;SHT30;59417;44.788;10.334;2024-03-08T09:33:49;10.08;81.69
28175;SHT30;59417;44.788;10.334;2024-03-08T09:36:16;10.09;81.77
28175;SHT30;59417;44.788;10.334;2024-03-08T09:38:42;10.14;81.80
28175;SHT30;59417;44.788;10.334;2024-03-08T09:41:08;10.21;81.94
28175;SHT30;59417;44.788;10.334;2024-03-08T09:43:36;10.24;81.59
28175;SHT30;59417;44.788;10.334;2024-03-08T09:46:04;10.34;81.48
28175;SHT30;59417;44.788;10.334;2024-03-08T09:48:32;10.44;81.30
28175;SHT30;59417;44.788;10.334;2024-03-08T09:51:02;10.36;81.09
28175;SHT30;59417;44.788;10.334;2024-03-08T09:53:28;10.31;81.22
28175;SHT30;59417;44.788;10.334;2024-03-08T09:55:54;10.33;81.41
28175;SHT30;59417;44.788;10.334;2024-03-08T09:58:23;10.30;81.47
28175;SHT30;59417;44.788;10.334;2024-03-08T10:00:58;10.26;81.46
28175;SHT30;59417;44.788;10.334;2024-03-08T10:03:24;10.24;81.74
28175;SHT30;59417;44.788;10.334;2024-03-08T10:05:56;10.29;81.20
28175;SHT30;59417;44.788;10.334;2024-03-08T10:08:31;10.24;81.33
28175;SHT30;59417;44.788;10.334;2024-03-08T10:10:57;10.21;81.52
28175;SHT30;59417;44.788;10.334;2024-03-08T10:13:26;10.26;82.10
28175;SHT30;59417;44.788;10.334;2024-03-08T10:15:53;10.34;82.11
28175;SHT30;59417;44.788;10.334;2024-03-08T10:18:19;10.41;82.23
28175;SHT30;59417;44.788;10.334;2024-03-08T10:20:45;10.50;81.61
28175;SHT30;59417;44.788;10.334;2024-03-08T10:23:11;10.64;81.25
28175;SHT30;59417;44.788;10.334;2024-03-08T10:25:36;10.61;80.54
28175;SHT30;59417;44.788;10.334;2024-03-08T10:28:03;10.56;80.62
28175;SHT30;59417;44.788;10.334;2024-03-08T10:30:32;10.52;81.03
28175;SHT30;59417;44.788;10.334;2024-03-08T10:32:58;10.56;81.47
28175;SHT30;59417;44.788;10.334;2024-03-08T10:35:24;10.51;81.26
28175;SHT30;59417;44.788;10.334;2024-03-08T10:37:52;10.45;81.46
28175;SHT30;59417;44.788;10.334;2024-03-08T10:40:39;10.50;81.29
28175;SHT30;59417;44.788;10.334;2024-03-08T10:43:23;10.56;80.95
28175;SHT30;59417;44.788;10.334;2024-03-08T10:46:32;10.54;81.00
28175;SHT30;59417;44.788;10.334;2024-03-08T10:49:03;10.56;80.57
28175;SHT30;59417;44.788;10.334;2024-03-08T10:51:32;10.52;80.72
28175;SHT30;59417;44.788;10.334;2024-03-08T10:53:59;10.51;80.78
28175;SHT30;59417;44.788;10.334;2024-03-08T10:56:25;10.56;80.89
28175;SHT30;59417;44.788;10.334;2024-03-08T10:58:54;10.56;80.70
28175;SHT30;59417;44.788;10.334;2024-03-08T11:01:21;10.50;80.65
28175;SHT30;59417;44.788;10.334;2024-03-08T11:03:47;10.50;81.08
28175;SHT30;59417;44.788;10.334;2024-03-08T11:06:42;10.51;80.85
28175;SHT30;59417;44.788;10.334;2024-03-08T11:09:11;10.57;80.89
28175;SHT30;59417;44.788;10.334;2024-03-08T11:12:23;10.64;80.85
28175;SHT30;59417;44.788;10.334;2024-03-08T11:14:57;10.70;80.74
28175;SHT30;59417;44.788;10.334;2024-03-08T11:19:56;10.59;80.91
28175;SHT30;59417;44.788;10.334;2024-03-08T11:22:30;10.54;81.46
28175;SHT30;59417;44.788;10.334;2024-03-08T11:25:09;10.56;81.64
28175;SHT30;59417;44.788;10.334;2024-03-08T11:27:36;10.48;81.71
28175;SHT30;59417;44.788;10.334;2024-03-08T11:30:04;10.48;82.06
28175;SHT30;59417;44.788;10.334;2024-03-08T11:32:44;10.57;82.07
28175;SHT30;59417;44.788;10.334;2024-03-08T11:35:21;10.51;81.82
28175;SHT30;59417;44.788;10.334;2024-03-08T11:37:48;10.50;81.97
28175;SHT30;59417;44.788;10.334;2024-03-08T11:40:15;10.51;82.21
28175;SHT30;59417;44.788;10.334;2024-03-08T11:42:45;10.54;82.49
28175;SHT30;59417;44.788;10.334;2024-03-08T11:45:15;10.51;82.69
28175;SHT30;59417;44.788;10.334;2024-03-08T11:47:45;10.60;82.56
28175;SHT30;59417;44.788;10.334;2024-03-08T11:50:12;10.61;82.33
28175;SHT30;59417;44.788;10.334;2024-03-08T11:52:38;10.61;82.49
28175;SHT30;59417;44.788;10.334;2024-03-08T11:55:05;10.57;82.35
28175;SHT30;59417;44.788;10.334;2024-03-08T11:57:31;10.64;82.53
28175;SHT30;59417;44.788;10.334;2024-03-08T11:59:58;10.64;82.35
28175;SHT30;59417;44.788;10.334;2024-03-08T12:03:06;10.63;82.09
28175;SHT30;59417;44.788;10.334;2024-03-08T12:05:33;10.61;82.28
28175;SHT30;59417;44.788;10.334;2024-03-08T12:08:09;10.68;82.38
28175;SHT30;59417;44.788;10.334;2024-03-08T12:10:38;10.71;82.43
28175;SHT30;59417;44.788;10.334;2024-03-08T12:13:04;10.74;82.12
28175;SHT30;59417;44.788;10.334;2024-03-08T12:15:39;10.70;81.89
28175;SHT30;59417;44.788;10.334;2024-03-08T12:18:05;10.65;82.29
28175;SHT30;59417;44.788;10.334;2024-03-08T12:20:32;10.64;82.49
28175;SHT30;59417;44.788;10.334;2024-03-08T12:22:58;10.61;82.79
28175;SHT30;59417;44.788;10.334;2024-03-08T12:25:30;10.48;82.91
28175;SHT30;59417;44.788;10.334;2024-03-08T12:28:06;10.41;83.37
28175;SHT30;59417;44.788;10.334;2024-03-08T12:30:46;10.40;83.50
28175;SHT30;59417;44.788;10.334;2024-03-08T12:34:00;10.41;83.21
28175;SHT30;59417;44.788;10.334;2024-03-08T12:36:32;10.54;83.05
28175;SHT30;59417;44.788;10.334;2024-03-08T12:38:59;10.50;82.96
28175;SHT30;59417;44.788;10.334;2024-03-08T12:41:24;10.52;82.84
28175;SHT30;59417;44.788;10.334;2024-03-08T12:44:21;10.63;82.57
28175;SHT30;59417;44.788;10.334;2024-03-08T12:46:48;10.57;82.63
28175;SHT30;59417;44.788;10.334;2024-03-08T12:49:26;10.63;82.65
28175;SHT30;59417;44.788;10.334;2024-03-08T12:52:01;10.68;82.42
28175;SHT30;59417;44.788;10.334;2024-03-08T12:55:35;10.60;82.52
28175;SHT30;59417;44.788;10.334;2024-03-08T12:58:24;10.72;82.67
28175;SHT30;59417;44.788;10.334;2024-03-08T13:01:18;10.71;82.56
28175;SHT30;59417;44.788;10.334;2024-03-08T13:03:44;10.77;82.01
28175;SHT30;59417;44.788;10.334;2024-03-08T13:06:21;10.80;82.20
28175;SHT30;59417;44.788;10.334;2024-03-08T13:08:55;10.78;82.39
28175;SHT30;59417;44.788;10.334;2024-03-08T13:11:29;10.81;82.00
28175;SHT30;59417;44.788;10.334;2024-03-08T13:13:55;10.87;81.99
28175;SHT30;59417;44.788;10.334;2024-03-08T13:16:20;10.94;82.29
28175;SHT30;59417;44.788;10.334;2024-03-08T13:18:46;10.98;81.79
28175;SHT30;59417;44.788;10.334;2024-03-08T13:21:15;11.11;81.39
28175;SHT30;59417;44.788;10.334;2024-03-08T13:23:44;11.18;80.98
28175;SHT30;59417;44.788;10.334;2024-03-08T13:26:15;11.13;80.58
28175;SHT30;59417;44.788;10.334;2024-03-08T13:28:45;11.12;80.66
28175;SHT30;59417;44.788;10.334;2024-03-08T13:31:11;11.12;80.99
28175;SHT30;59417;44.788;10.334;2024-03-08T13:33:37;11.18;80.65
28175;SHT30;59417;44.788;10.334;2024-03-08T13:36:26;11.19;80.38
28175;SHT30;59417;44.788;10.334;2024-03-08T13:42:14;11.25;80.38
28175;SHT30;59417;44.788;10.334;2024-03-08T13:44:49;11.22;80.48
28175;SHT30;59417;44.788;10.334;2024-03-08T13:47:16;11.25;80.75
28175;SHT30;59417;44.788;10.334;2024-03-08T13:50:03;11.19;80.39
28175;SHT30;59417;44.788;10.334;2024-03-08T13:52:39;11.22;80.49
28175;SHT30;59417;44.788;10.334;2024-03-08T13:55:06;11.23;80.47
28175;SHT30;59417;44.788;10.334;2024-03-08T13:57:32;11.23;80.36
28175;SHT30;59417;44.788;10.334;2024-03-08T13:59:58;11.15;80.63
28175;SHT30;59417;44.788;10.334;2024-03-08T14:02:28;11.06;80.47
28175;SHT30;59417;44.788;10.334;2024-03-08T14:05:17;10.96;80.21
28175;SHT30;59417;44.788;10.334;2024-03-08T14:07:45;10.95;80.95
28175;SHT30;59417;44.788;10.334;2024-03-08T14:10:14;10.94;80.81
28175;SHT30;59417;44.788;10.334;2024-03-08T14:13:00;10.92;81.20
28175;SHT30;59417;44.788;10.334;2024-03-08T14:15:28;10.89;80.92
28175;SHT30;59417;44.788;10.334;2024-03-08T14:17:59;10.87;80.84
28175;SHT30;59417;44.788;10.334;2024-03-08T14:20:34;10.78;80.94
28175;SHT30;59417;44.788;10.334;2024-03-08T14:23:03;10.80;81.14
28175;SHT30;59417;44.788;10.334;2024-03-08T14:25:32;10.81;81.40
28175;SHT30;59417;44.788;10.334;2024-03-08T14:28:01;10.77;81.42
28175;SHT30;59417;44.788;10.334;2024-03-08T14:30:42;10.74;81.52
28175;SHT30;59417;44.788;10.334;2024-03-08T14:33:08;10.70;81.91
28175;SHT30;59417;44.788;10.334;2024-03-08T14:35:41;10.72;81.73
28175;SHT30;59417;44.788;10.334;2024-03-08T14:38:13;10.71;81.71
28175;SHT30;59417;44.788;10.334;2024-03-08T14:40:39;10.71;81.38
28175;SHT30;59417;44.788;10.334;2024-03-08T14:43:05;10.70;81.46
28175;SHT30;59417;44.788;10.334;2024-03-08T14:45:31;10.71;81.28
28175;SHT30;59417;44.788;10.334;2024-03-08T14:47:57;10.71;81.62
28175;SHT30;59417;44.788;10.334;2024-03-08T14:50:24;10.74;81.23
28175;SHT30;59417;44.788;10.334;2024-03-08T14:52:50;10.70;81.27
28175;SHT30;59417;44.788;10.334;2024-03-08T14:55:20;10.70;81.09
28175;SHT30;59417;44.788;10.334;2024-03-08T14:57:48;10.68;81.38
28175;SHT30;59417;44.788;10.334;2024-03-08T15:00:25;10.65;81.42
28175;SHT30;59417;44.788;10.334;2024-03-08T15:03:00;10.70;80.90
28175;SHT30;59417;44.788;10.334;2024-03-08T15:05:27;10.64;81.22
28175;SHT30;59417;44.788;10.334;2024-03-08T15:07:54;10.65;81.11
28175;SHT30;59417;44.788;10.334;2024-03-08T15:10:20;10.65;81.41
28175;SHT30;59417;44.788;10.334;2024-03-08T15:12:49;10.64;81.44
28175;SHT30;59417;44.788;10.334;2024-03-08T15:15:15;10.67;81.00
28175;SHT30;59417;44.788;10.334;2024-03-08T15:17:44;10.65;80.99
28175;SHT30;59417;44.788;10.334;2024-03-08T15:20:15;10.68;81.10
28175;SHT30;59417;44.788;10.334;2024-03-08T15:22:50;10.68;81.19
28175;SHT30;59417;44.788;10.334;2024-03-08T15:25:21;10.63;81.19
28175;SHT30;59417;44.788;10.334;2024-03-08T15:27:54;10.61;81.31
28175;SHT30;59417;44.788;10.334;2024-03-08T15:30:21;10.63;81.31
28175;SHT30;59417;44.788;10.334;2024-03-08T15:32:52;10.57;81.26
28175;SHT30;59417;44.788;10.334;2024-03-08T15:35:27;10.56;81.13
28175;SHT30;59417;44.788;10.334;2024-03-08T15:37:53;10.56;81.30
28175;SHT30;59417;44.788;10.334;2024-03-08T15:40:23;10.50;81.39
28175;SHT30;59417;44.788;10.334;2024-03-08T15:45:29;10.45;81.62